sensor_id;sensor_type;location;lat;lon;timestamp;temperature;humidity
53152;DHT22;39234;53.158;6.322;2023-07-22T00:02:17;12.80;99.90
53152;DHT22;39234;53.158;6.322;2023-07-22T00:04:43;12.60;99.90
53152;DHT22;39234;53.158;6.322;2023-07-22T00:07:09;12.70;99.90
53152;DHT22;39234;53.158;6.322;2023-07-22T00:09:35;12.50;99.90
53152;DHT22;39234;53.158;6.322;2023-07-22T00:12:01;13.90;99.90
53152;DHT22;39234;53.158;6.322;2023-07-22T00:14:27;12.40;99.90
53152;DHT22;39234;53.158;6.322;2023-07-22T00:16:53;12.30;99.90
53152;DHT22;39234;53.158;6.322;2023-07-22T00:19:19;12.40;99.90
53152;DHT22;39234;53.158;6.322;2023-07-22T00:21:44;12.30;99.90
53152;DHT22;39234;53.158;6.322;2023-07-22T00:24:10;12.30;99.90
53152;DHT22;39234;53.158;6.322;2023-07-22T00:26:36;12.30;99.90
53152;DHT22;39234;53.158;6.322;2023-07-22T00:29:02;12.40;99.90
53152;DHT22;39234;53.158;6.322;2023-07-22T00:31:28;12.40;99.90
53152;DHT22;39234;53.158;6.322;2023-07-22T00:33:54;12.40;99.90
53152;DHT22;39234;53.158;6.322;2023-07-22T00:36:20;12.30;99.90
53152;DHT22;39234;53.158;6.322;2023-07-22T00:38:45;12.20;99.90
53152;DHT22;39234;53.158;6.322;2023-07-22T00:41:11;12.10;99.90
53152;DHT22;39234;53.158;6.322;2023-07-22T00:43:37;12.00;99.90
53152;DHT22;39234;53.158;6.322;2023-07-22T00:46:04;11.90;99.90
53152;DHT22;39234;53.158;6.322;2023-07-22T00:48:30;11.80;99.90
53152;DHT22;39234;53.158;6.322;2023-07-22T00:50:56;11.70;99.90
53152;DHT22;39234;53.158;6.322;2023-07-22T00:53:23;12.00;99.90
53152;DHT22;39234;53.158;6.322;2023-07-22T00:55:49;11.70;99.90
53152;DHT22;39234;53.158;6.322;2023-07-22T00:58:15;11.60;99.90
53152;DHT22;39234;53.158;6.322;2023-07-22T01:00:41;11.90;99.90
53152;DHT22;39234;53.158;6.322;2023-07-22T01:03:07;11.70;99.90
53152;DHT22;39234;53.158;6.322;2023-07-22T01:05:34;11.80;99.90
53152;DHT22;39234;53.158;6.322;2023-07-22T01:08:00;11.80;99.90
53152;DHT22;39234;53.158;6.322;2023-07-22T01:10:26;11.80;99.90
53152;DHT22;39234;53.158;6.322;2023-07-22T01:12:52;11.80;99.90
53152;DHT22;39234;53.158;6.322;2023-07-22T01:15:17;11.90;99.90
53152;DHT22;39234;53.158;6.322;2023-07-22T01:17:43;12.00;99.90
53152;DHT22;39234;53.158;6.322;2023-07-22T01:20:10;11.80;99.90
53152;DHT22;39234;53.158;6.322;2023-07-22T01:22:36;11.90;99.90
53152;DHT22;39234;53.158;6.322;2023-07-22T01:25:02;12.00;99.90
53152;DHT22;39234;53.158;6.322;2023-07-22T01:27:29;11.70;99.90
53152;DHT22;39234;53.158;6.322;2023-07-22T01:29:55;11.90;99.90
53152;DHT22;39234;53.158;6.322;2023-07-22T01:32:20;11.90;99.90
53152;DHT22;39234;53.158;6.322;2023-07-22T01:34:46;11.90;99.90
53152;DHT22;39234;53.158;6.322;2023-07-22T01:37:12;11.80;99.90
53152;DHT22;39234;53.158;6.322;2023-07-22T01:39:37;10.20;99.90
53152;DHT22;39234;53.158;6.322;2023-07-22T01:42:03;11.80;99.90
53152;DHT22;39234;53.158;6.322;2023-07-22T01:44:29;11.60;99.90
53152;DHT22;39234;53.158;6.322;2023-07-22T01:46:55;11.50;99.90
53152;DHT22;39234;53.158;6.322;2023-07-22T01:49:21;11.50;99.90
53152;DHT22;39234;53.158;6.322;2023-07-22T01:51:50;11.60;99.90
53152;DHT22;39234;53.158;6.322;2023-07-22T01:54:15;11.60;99.90
53152;DHT22;39234;53.158;6.322;2023-07-22T01:56:41;11.30;99.90
53152;DHT22;39234;53.158;6.322;2023-07-22T01:59:07;11.40;99.90
53152;DHT22;39234;53.158;6.322;2023-07-22T02:01:33;11.50;99.90
53152;DHT22;39234;53.158;6.322;2023-07-22T02:03:59;11.20;99.90
53152;DHT22;39234;53.158;6.322;2023-07-22T02:06:26;11.30;99.90
53152;DHT22;39234;53.158;6.322;2023-07-22T02:08:52;11.20;99.90
53152;DHT22;39234;53.158;6.322;2023-07-22T02:11:18;11.30;99.90
53152;DHT22;39234;53.158;6.322;2023-07-22T02:13:44;11.30;99.90
53152;DHT22;39234;53.158;6.322;2023-07-22T02:16:09;11.10;99.90
53152;DHT22;39234;53.158;6.322;2023-07-22T02:18:38;11.20;99.90
53152;DHT22;39234;53.158;6.322;2023-07-22T02:21:04;11.20;99.90
53152;DHT22;39234;53.158;6.322;2023-07-22T02:23:29;11.00;99.90
53152;DHT22;39234;53.158;6.322;2023-07-22T02:25:55;11.30;99.90
53152;DHT22;39234;53.158;6.322;2023-07-22T02:28:21;11.00;99.90
53152;DHT22;39234;53.158;6.322;2023-07-22T02:30:52;10.90;99.90
53152;DHT22;39234;53.158;6.322;2023-07-22T02:33:19;11.10;99.90
53152;DHT22;39234;53.158;6.322;2023-07-22T02:35:46;11.00;99.90
53152;DHT22;39234;53.158;6.322;2023-07-22T02:38:12;10.90;99.90
53152;DHT22;39234;53.158;6.322;2023-07-22T02:40:40;11.10;99.90
53152;DHT22;39234;53.158;6.322;2023-07-22T02:43:06;10.90;99.90
53152;DHT22;39234;53.158;6.322;2023-07-22T02:45:33;10.90;99.90
53152;DHT22;39234;53.158;6.322;2023-07-22T02:47:59;10.80;99.90
53152;DHT22;39234;53.158;6.322;2023-07-22T02:50:25;10.60;99.90
53152;DHT22;39234;53.158;6.322;2023-07-22T02:52:51;10.50;99.90
53152;DHT22;39234;53.158;6.322;2023-07-22T02:55:18;10.80;99.90
53152;DHT22;39234;53.158;6.322;2023-07-22T02:57:47;10.60;99.90
53152;DHT22;39234;53.158;6.322;2023-07-22T03:00:17;10.60;99.90
53152;DHT22;39234;53.158;6.322;2023-07-22T03:02:52;10.60;99.90
53152;DHT22;39234;53.158;6.322;2023-07-22T03:05:19;10.60;99.90
53152;DHT22;39234;53.158;6.322;2023-07-22T03:07:45;10.50;99.90
53152;DHT22;39234;53.158;6.322;2023-07-22T03:10:11;10.60;99.90
53152;DHT22;39234;53.158;6.322;2023-07-22T03:12:37;10.70;99.90
53152;DHT22;39234;53.158;6.322;2023-07-22T03:15:03;10.70;99.90
53152;DHT22;39234;53.158;6.322;2023-07-22T03:17:30;10.60;99.90
53152;DHT22;39234;53.158;6.322;2023-07-22T03:19:56;10.50;99.90
53152;DHT22;39234;53.158;6.322;2023-07-22T03:22:22;10.60;99.90
53152;DHT22;39234;53.158;6.322;2023-07-22T03:24:47;10.50;99.90
53152;DHT22;39234;53.158;6.322;2023-07-22T03:27:14;10.50;99.90
53152;DHT22;39234;53.158;6.322;2023-07-22T03:29:41;10.50;99.90
53152;DHT22;39234;53.158;6.322;2023-07-22T03:32:07;10.60;99.90
53152;DHT22;39234;53.158;6.322;2023-07-22T03:34:33;10.00;99.90
53152;DHT22;39234;53.158;6.322;2023-07-22T03:36:59;12.20;99.90
53152;DHT22;39234;53.158;6.322;2023-07-22T03:39:25;10.50;99.90
53152;DHT22;39234;53.158;6.322;2023-07-22T03:41:50;11.30;99.90
53152;DHT22;39234;53.158;6.322;2023-07-22T03:44:16;10.80;99.90
53152;DHT22;39234;53.158;6.322;2023-07-22T03:46:42;10.90;99.90
53152;DHT22;39234;53.158;6.322;2023-07-22T03:49:07;10.70;99.90
53152;DHT22;39234;53.158;6.322;2023-07-22T03:51:33;11.00;99.90
53152;DHT22;39234;53.158;6.322;2023-07-22T03:54:00;11.00;99.90
53152;DHT22;39234;53.158;6.322;2023-07-22T03:56:26;10.90;99.90
53152;DHT22;39234;53.158;6.322;2023-07-22T03:58:52;11.20;99.90
53152;DHT22;39234;53.158;6.322;2023-07-22T04:01:18;11.20;99.90
53152;DHT22;39234;53.158;6.322;2023-07-22T04:03:44;11.30;99.90
53152;DHT22;39234;53.158;6.322;2023-07-22T04:06:09;9.40;99.90
53152;DHT22;39234;53.158;6.322;2023-07-22T04:08:35;11.30;99.90
53152;DHT22;39234;53.158;6.322;2023-07-22T04:11:01;13.10;99.90
53152;DHT22;39234;53.158;6.322;2023-07-22T04:13:29;11.40;99.90
53152;DHT22;39234;53.158;6.322;2023-07-22T04:15:54;11.60;99.90
53152;DHT22;39234;53.158;6.322;2023-07-22T04:18:20;11.40;99.90
53152;DHT22;39234;53.158;6.322;2023-07-22T04:20:47;11.60;99.90
53152;DHT22;39234;53.158;6.322;2023-07-22T04:23:16;11.50;99.90
53152;DHT22;39234;53.158;6.322;2023-07-22T04:25:45;10.90;99.90
53152;DHT22;39234;53.158;6.322;2023-07-22T04:28:11;11.80;99.90
53152;DHT22;39234;53.158;6.322;2023-07-22T04:30:37;11.50;99.90
53152;DHT22;39234;53.158;6.322;2023-07-22T04:33:03;11.60;99.90
53152;DHT22;39234;53.158;6.322;2023-07-22T04:35:37;11.60;99.90
53152;DHT22;39234;53.158;6.322;2023-07-22T04:38:04;11.90;99.90
53152;DHT22;39234;53.158;6.322;2023-07-22T04:40:30;11.80;99.90
53152;DHT22;39234;53.158;6.322;2023-07-22T04:42:56;11.80;99.90
53152;DHT22;39234;53.158;6.322;2023-07-22T04:45:23;11.80;99.90
53152;DHT22;39234;53.158;6.322;2023-07-22T04:47:51;12.10;99.90
53152;DHT22;39234;53.158;6.322;2023-07-22T04:50:17;11.90;99.90
53152;DHT22;39234;53.158;6.322;2023-07-22T04:52:46;11.90;99.90
53152;DHT22;39234;53.158;6.322;2023-07-22T04:55:13;11.90;99.90
53152;DHT22;39234;53.158;6.322;2023-07-22T04:57:39;12.00;99.90
53152;DHT22;39234;53.158;6.322;2023-07-22T05:00:09;12.00;99.90
53152;DHT22;39234;53.158;6.322;2023-07-22T05:02:37;12.30;99.90
53152;DHT22;39234;53.158;6.322;2023-07-22T05:05:04;12.20;99.90
53152;DHT22;39234;53.158;6.322;2023-07-22T05:07:30;12.30;99.90
53152;DHT22;39234;53.158;6.322;2023-07-22T05:09:55;12.30;99.90
53152;DHT22;39234;53.158;6.322;2023-07-22T05:12:21;12.20;99.90
53152;DHT22;39234;53.158;6.322;2023-07-22T05:14:47;12.20;99.90
53152;DHT22;39234;53.158;6.322;2023-07-22T05:17:13;12.60;99.90
53152;DHT22;39234;53.158;6.322;2023-07-22T05:19:39;12.40;99.90
53152;DHT22;39234;53.158;6.322;2023-07-22T05:22:05;12.60;99.90
53152;DHT22;39234;53.158;6.322;2023-07-22T05:24:31;12.70;99.90
53152;DHT22;39234;53.158;6.322;2023-07-22T05:26:56;12.80;99.90
53152;DHT22;39234;53.158;6.322;2023-07-22T05:29:22;12.90;99.90
53152;DHT22;39234;53.158;6.322;2023-07-22T05:31:48;12.80;99.90
53152;DHT22;39234;53.158;6.322;2023-07-22T05:34:14;12.90;99.90
53152;DHT22;39234;53.158;6.322;2023-07-22T05:36:40;13.00;99.90
53152;DHT22;39234;53.158;6.322;2023-07-22T05:39:05;13.20;99.90
53152;DHT22;39234;53.158;6.322;2023-07-22T05:41:34;13.30;99.90
53152;DHT22;39234;53.158;6.322;2023-07-22T05:44:00;13.30;99.90
53152;DHT22;39234;53.158;6.322;2023-07-22T05:46:26;13.40;99.90
53152;DHT22;39234;53.158;6.322;2023-07-22T05:48:52;13.60;99.90
53152;DHT22;39234;53.158;6.322;2023-07-22T05:51:18;13.70;99.90
53152;DHT22;39234;53.158;6.322;2023-07-22T05:53:44;13.60;99.90
53152;DHT22;39234;53.158;6.322;2023-07-22T05:56:10;13.80;99.90
53152;DHT22;39234;53.158;6.322;2023-07-22T05:58:36;13.90;99.90
53152;DHT22;39234;53.158;6.322;2023-07-22T06:01:02;14.00;99.90
53152;DHT22;39234;53.158;6.322;2023-07-22T06:03:28;13.90;99.90
53152;DHT22;39234;53.158;6.322;2023-07-22T06:05:54;14.00;99.90
53152;DHT22;39234;53.158;6.322;2023-07-22T06:08:19;13.90;99.90
53152;DHT22;39234;53.158;6.322;2023-07-22T06:10:45;14.10;99.90
53152;DHT22;39234;53.158;6.322;2023-07-22T06:13:11;14.00;99.90
53152;DHT22;39234;53.158;6.322;2023-07-22T06:15:37;14.20;99.90
53152;DHT22;39234;53.158;6.322;2023-07-22T06:18:03;14.50;99.90
53152;DHT22;39234;53.158;6.322;2023-07-22T06:20:28;14.70;99.90
53152;DHT22;39234;53.158;6.322;2023-07-22T06:22:54;14.80;99.90
53152;DHT22;39234;53.158;6.322;2023-07-22T06:25:20;14.80;99.90
53152;DHT22;39234;53.158;6.322;2023-07-22T06:27:46;14.70;99.90
53152;DHT22;39234;53.158;6.322;2023-07-22T06:30:12;14.90;99.90
53152;DHT22;39234;53.158;6.322;2023-07-22T06:32:38;15.30;99.90
53152;DHT22;39234;53.158;6.322;2023-07-22T06:35:05;15.30;99.90
53152;DHT22;39234;53.158;6.322;2023-07-22T06:37:31;15.70;99.90
53152;DHT22;39234;53.158;6.322;2023-07-22T06:39:56;15.80;99.90
53152;DHT22;39234;53.158;6.322;2023-07-22T06:42:22;16.10;99.90
53152;DHT22;39234;53.158;6.322;2023-07-22T06:44:48;16.00;99.90
53152;DHT22;39234;53.158;6.322;2023-07-22T06:47:14;16.10;99.90
53152;DHT22;39234;53.158;6.322;2023-07-22T06:49:40;16.30;99.90
53152;DHT22;39234;53.158;6.322;2023-07-22T06:52:07;16.40;99.90
53152;DHT22;39234;53.158;6.322;2023-07-22T06:54:33;16.40;99.90
53152;DHT22;39234;53.158;6.322;2023-07-22T06:56:59;16.50;99.90
53152;DHT22;39234;53.158;6.322;2023-07-22T06:59:25;16.40;99.90
53152;DHT22;39234;53.158;6.322;2023-07-22T07:01:52;16.40;99.90
53152;DHT22;39234;53.158;6.322;2023-07-22T07:04:18;16.60;99.90
53152;DHT22;39234;53.158;6.322;2023-07-22T07:06:44;16.40;99.90
53152;DHT22;39234;53.158;6.322;2023-07-22T07:09:11;16.50;99.90
53152;DHT22;39234;53.158;6.322;2023-07-22T07:11:37;16.40;99.90
53152;DHT22;39234;53.158;6.322;2023-07-22T07:14:03;16.30;99.90
53152;DHT22;39234;53.158;6.322;2023-07-22T07:16:30;16.40;99.90
53152;DHT22;39234;53.158;6.322;2023-07-22T07:18:57;16.60;99.90
53152;DHT22;39234;53.158;6.322;2023-07-22T07:21:23;16.50;99.90
53152;DHT22;39234;53.158;6.322;2023-07-22T07:23:50;16.30;99.90
53152;DHT22;39234;53.158;6.322;2023-07-22T07:26:16;16.20;99.90
53152;DHT22;39234;53.158;6.322;2023-07-22T07:28:43;16.20;99.90
53152;DHT22;39234;53.158;6.322;2023-07-22T07:31:09;16.40;99.90
53152;DHT22;39234;53.158;6.322;2023-07-22T07:33:35;16.60;99.90
53152;DHT22;39234;53.158;6.322;2023-07-22T07:36:01;17.20;99.90
53152;DHT22;39234;53.158;6.322;2023-07-22T07:38:26;17.90;99.90
53152;DHT22;39234;53.158;6.322;2023-07-22T07:40:55;18.20;99.90
53152;DHT22;39234;53.158;6.322;2023-07-22T07:43:21;18.40;99.90
53152;DHT22;39234;53.158;6.322;2023-07-22T07:45:47;18.60;99.90
53152;DHT22;39234;53.158;6.322;2023-07-22T07:48:12;18.20;99.90
53152;DHT22;39234;53.158;6.322;2023-07-22T07:50:38;18.30;99.90
53152;DHT22;39234;53.158;6.322;2023-07-22T07:53:04;18.40;99.90
53152;DHT22;39234;53.158;6.322;2023-07-22T07:55:29;18.60;99.90
53152;DHT22;39234;53.158;6.322;2023-07-22T07:57:55;19.10;99.90
53152;DHT22;39234;53.158;6.322;2023-07-22T08:00:21;19.80;99.90
53152;DHT22;39234;53.158;6.322;2023-07-22T08:02:47;20.00;99.90
53152;DHT22;39234;53.158;6.322;2023-07-22T08:05:13;19.80;99.90
53152;DHT22;39234;53.158;6.322;2023-07-22T08:07:39;19.70;99.90
53152;DHT22;39234;53.158;6.322;2023-07-22T08:10:06;19.50;99.90
53152;DHT22;39234;53.158;6.322;2023-07-22T08:12:33;19.10;99.90
53152;DHT22;39234;53.158;6.322;2023-07-22T08:14:59;18.90;99.90
53152;DHT22;39234;53.158;6.322;2023-07-22T08:17:25;18.60;99.90
53152;DHT22;39234;53.158;6.322;2023-07-22T08:19:51;18.40;99.90
53152;DHT22;39234;53.158;6.322;2023-07-22T08:22:17;18.30;99.90
53152;DHT22;39234;53.158;6.322;2023-07-22T08:24:43;18.40;99.90
53152;DHT22;39234;53.158;6.322;2023-07-22T08:27:09;18.30;99.90
53152;DHT22;39234;53.158;6.322;2023-07-22T08:29:36;18.60;99.90
53152;DHT22;39234;53.158;6.322;2023-07-22T08:32:01;18.50;99.90
53152;DHT22;39234;53.158;6.322;2023-07-22T08:34:27;18.10;99.90
53152;DHT22;39234;53.158;6.322;2023-07-22T08:36:53;18.20;99.90
53152;DHT22;39234;53.158;6.322;2023-07-22T08:39:19;18.30;99.90
53152;DHT22;39234;53.158;6.322;2023-07-22T08:41:48;18.60;99.90
53152;DHT22;39234;53.158;6.322;2023-07-22T08:44:18;18.90;99.90
53152;DHT22;39234;53.158;6.322;2023-07-22T08:46:45;18.90;99.90
53152;DHT22;39234;53.158;6.322;2023-07-22T08:49:12;18.90;99.90
53152;DHT22;39234;53.158;6.322;2023-07-22T08:51:39;18.90;99.90
53152;DHT22;39234;53.158;6.322;2023-07-22T08:54:05;18.60;99.90
53152;DHT22;39234;53.158;6.322;2023-07-22T08:56:31;18.90;99.90
53152;DHT22;39234;53.158;6.322;2023-07-22T08:58:58;18.90;99.90
53152;DHT22;39234;53.158;6.322;2023-07-22T09:01:24;18.80;99.90
53152;DHT22;39234;53.158;6.322;2023-07-22T09:03:50;18.50;99.90
53152;DHT22;39234;53.158;6.322;2023-07-22T09:06:19;18.30;99.90
53152;DHT22;39234;53.158;6.322;2023-07-22T09:08:45;18.50;99.90
53152;DHT22;39234;53.158;6.322;2023-07-22T09:11:11;18.00;99.90
53152;DHT22;39234;53.158;6.322;2023-07-22T09:13:38;18.10;99.90
53152;DHT22;39234;53.158;6.322;2023-07-22T09:16:06;17.20;99.90
53152;DHT22;39234;53.158;6.322;2023-07-22T09:18:33;17.10;99.90
53152;DHT22;39234;53.158;6.322;2023-07-22T09:20:59;16.40;99.90
53152;DHT22;39234;53.158;6.322;2023-07-22T09:23:38;16.40;99.90
53152;DHT22;39234;53.158;6.322;2023-07-22T09:26:11;16.20;99.90
53152;DHT22;39234;53.158;6.322;2023-07-22T09:28:52;16.20;99.90
53152;DHT22;39234;53.158;6.322;2023-07-22T09:31:20;16.10;99.90
53152;DHT22;39234;53.158;6.322;2023-07-22T09:33:46;15.80;99.90
53152;DHT22;39234;53.158;6.322;2023-07-22T09:36:12;15.70;99.90
53152;DHT22;39234;53.158;6.322;2023-07-22T09:38:38;16.00;99.90
53152;DHT22;39234;53.158;6.322;2023-07-22T09:41:03;16.00;99.90
53152;DHT22;39234;53.158;6.322;2023-07-22T09:43:30;16.10;99.90
53152;DHT22;39234;53.158;6.322;2023-07-22T09:45:56;16.10;99.90
53152;DHT22;39234;53.158;6.322;2023-07-22T09:48:32;16.20;99.90
53152;DHT22;39234;53.158;6.322;2023-07-22T09:51:04;16.40;99.90
53152;DHT22;39234;53.158;6.322;2023-07-22T09:53:30;16.20;99.90
53152;DHT22;39234;53.158;6.322;2023-07-22T09:56:03;16.30;99.90
53152;DHT22;39234;53.158;6.322;2023-07-22T09:58:31;16.40;99.90
53152;DHT22;39234;53.158;6.322;2023-07-22T10:00:59;16.40;99.90
53152;DHT22;39234;53.158;6.322;2023-07-22T10:03:29;16.40;99.90
53152;DHT22;39234;53.158;6.322;2023-07-22T10:05:58;16.30;99.90
53152;DHT22;39234;53.158;6.322;2023-07-22T10:08:26;16.20;99.90
53152;DHT22;39234;53.158;6.322;2023-07-22T10:10:56;16.20;99.90
53152;DHT22;39234;53.158;6.322;2023-07-22T10:13:24;16.10;99.90
53152;DHT22;39234;53.158;6.322;2023-07-22T10:15:50;16.30;99.90
53152;DHT22;39234;53.158;6.322;2023-07-22T10:18:16;16.10;99.90
53152;DHT22;39234;53.158;6.322;2023-07-22T10:20:43;16.10;99.90
53152;DHT22;39234;53.158;6.322;2023-07-22T10:23:10;16.10;99.90
53152;DHT22;39234;53.158;6.322;2023-07-22T10:25:39;16.20;99.90
53152;DHT22;39234;53.158;6.322;2023-07-22T10:28:06;16.20;99.90
53152;DHT22;39234;53.158;6.322;2023-07-22T10:30:33;16.10;99.90
53152;DHT22;39234;53.158;6.322;2023-07-22T10:32:59;16.10;99.90
53152;DHT22;39234;53.158;6.322;2023-07-22T10:40:51;16.20;99.90
53152;DHT22;39234;53.158;6.322;2023-07-22T10:43:19;16.00;99.90
53152;DHT22;39234;53.158;6.322;2023-07-22T10:45:54;16.10;99.90
53152;DHT22;39234;53.158;6.322;2023-07-22T10:48:23;15.90;99.90
53152;DHT22;39234;53.158;6.322;2023-07-22T10:50:50;15.90;99.90
53152;DHT22;39234;53.158;6.322;2023-07-22T10:56:20;15.60;99.90
53152;DHT22;39234;53.158;6.322;2023-07-22T11:06:38;15.80;99.90
53152;DHT22;39234;53.158;6.322;2023-07-22T11:09:05;15.70;99.90
53152;DHT22;39234;53.158;6.322;2023-07-22T11:11:42;15.70;99.90
53152;DHT22;39234;53.158;6.322;2023-07-22T11:14:38;15.70;99.90
53152;DHT22;39234;53.158;6.322;2023-07-22T11:17:05;15.90;99.90
53152;DHT22;39234;53.158;6.322;2023-07-22T11:19:32;15.80;99.90
53152;DHT22;39234;53.158;6.322;2023-07-22T11:21:59;15.60;99.90
53152;DHT22;39234;53.158;6.322;2023-07-22T11:24:25;16.00;99.90
53152;DHT22;39234;53.158;6.322;2023-07-22T11:26:52;15.90;99.90
53152;DHT22;39234;53.158;6.322;2023-07-22T11:29:18;15.80;99.90
53152;DHT22;39234;53.158;6.322;2023-07-22T11:31:45;15.70;99.90
53152;DHT22;39234;53.158;6.322;2023-07-22T11:34:12;15.60;99.90
53152;DHT22;39234;53.158;6.322;2023-07-22T11:36:38;15.60;99.90
53152;DHT22;39234;53.158;6.322;2023-07-22T11:39:15;15.60;99.90
53152;DHT22;39234;53.158;6.322;2023-07-22T11:41:41;15.30;99.90
53152;DHT22;39234;53.158;6.322;2023-07-22T11:44:09;15.60;99.90
53152;DHT22;39234;53.158;6.322;2023-07-22T11:47:05;15.70;99.90
53152;DHT22;39234;53.158;6.322;2023-07-22T11:49:35;15.60;99.90
53152;DHT22;39234;53.158;6.322;2023-07-22T11:52:03;15.60;99.90
53152;DHT22;39234;53.158;6.322;2023-07-22T11:54:31;15.70;99.90
53152;DHT22;39234;53.158;6.322;2023-07-22T11:56:57;15.50;99.90
53152;DHT22;39234;53.158;6.322;2023-07-22T11:59:33;15.60;99.90
53152;DHT22;39234;53.158;6.322;2023-07-22T12:02:00;15.70;99.90
53152;DHT22;39234;53.158;6.322;2023-07-22T12:04:27;15.50;99.90
53152;DHT22;39234;53.158;6.322;2023-07-22T12:06:53;15.60;99.90
53152;DHT22;39234;53.158;6.322;2023-07-22T12:09:18;15.60;99.90
53152;DHT22;39234;53.158;6.322;2023-07-22T12:11:44;15.70;99.90
53152;DHT22;39234;53.158;6.322;2023-07-22T12:14:12;15.80;99.90
53152;DHT22;39234;53.158;6.322;2023-07-22T12:16:40;15.70;99.90
53152;DHT22;39234;53.158;6.322;2023-07-22T12:19:06;15.80;99.90
53152;DHT22;39234;53.158;6.322;2023-07-22T12:21:33;15.80;99.90
53152;DHT22;39234;53.158;6.322;2023-07-22T12:23:59;16.00;99.90
53152;DHT22;39234;53.158;6.322;2023-07-22T12:26:25;15.80;99.90
53152;DHT22;39234;53.158;6.322;2023-07-22T12:28:52;15.70;99.90
53152;DHT22;39234;53.158;6.322;2023-07-22T12:31:18;15.60;99.90
53152;DHT22;39234;53.158;6.322;2023-07-22T12:33:43;15.60;99.90
53152;DHT22;39234;53.158;6.322;2023-07-22T12:36:10;15.70;99.90
53152;DHT22;39234;53.158;6.322;2023-07-22T12:38:35;15.60;99.90
53152;DHT22;39234;53.158;6.322;2023-07-22T12:41:01;15.60;99.90
53152;DHT22;39234;53.158;6.322;2023-07-22T12:43:27;15.60;99.90
53152;DHT22;39234;53.158;6.322;2023-07-22T12:45:53;15.80;99.90
53152;DHT22;39234;53.158;6.322;2023-07-22T12:48:19;16.10;99.90
53152;DHT22;39234;53.158;6.322;2023-07-22T12:50:45;16.00;99.90
53152;DHT22;39234;53.158;6.322;2023-07-22T12:53:13;16.40;99.90
53152;DHT22;39234;53.158;6.322;2023-07-22T12:55:39;16.20;99.90
53152;DHT22;39234;53.158;6.322;2023-07-22T12:58:05;16.50;99.90
53152;DHT22;39234;53.158;6.322;2023-07-22T13:00:30;16.70;99.90
53152;DHT22;39234;53.158;6.322;2023-07-22T13:02:56;16.60;99.90
53152;DHT22;39234;53.158;6.322;2023-07-22T13:05:23;17.00;99.90
53152;DHT22;39234;53.158;6.322;2023-07-22T13:07:48;17.10;99.90
53152;DHT22;39234;53.158;6.322;2023-07-22T13:10:15;17.10;99.90
53152;DHT22;39234;53.158;6.322;2023-07-22T13:12:43;17.40;99.90
53152;DHT22;39234;53.158;6.322;2023-07-22T13:15:09;17.50;99.90
53152;DHT22;39234;53.158;6.322;2023-07-22T13:17:35;17.40;99.90
53152;DHT22;39234;53.158;6.322;2023-07-22T13:20:02;17.50;99.90
53152;DHT22;39234;53.158;6.322;2023-07-22T13:22:32;17.50;99.90
53152;DHT22;39234;53.158;6.322;2023-07-22T13:24:58;17.30;99.90
53152;DHT22;39234;53.158;6.322;2023-07-22T13:27:24;17.40;99.90
53152;DHT22;39234;53.158;6.322;2023-07-22T13:29:49;17.40;99.90
53152;DHT22;39234;53.158;6.322;2023-07-22T13:32:15;17.50;99.90
53152;DHT22;39234;53.158;6.322;2023-07-22T13:34:41;17.40;99.90
53152;DHT22;39234;53.158;6.322;2023-07-22T13:37:07;17.40;99.90
53152;DHT22;39234;53.158;6.322;2023-07-22T13:39:33;17.60;99.90
53152;DHT22;39234;53.158;6.322;2023-07-22T13:41:59;17.60;99.90
53152;DHT22;39234;53.158;6.322;2023-07-22T13:44:25;17.50;99.90
53152;DHT22;39234;53.158;6.322;2023-07-22T13:46:50;17.50;99.90
53152;DHT22;39234;53.158;6.322;2023-07-22T13:49:16;17.70;99.90
53152;DHT22;39234;53.158;6.322;2023-07-22T13:51:43;17.70;99.90
53152;DHT22;39234;53.158;6.322;2023-07-22T13:54:09;17.70;99.90
53152;DHT22;39234;53.158;6.322;2023-07-22T13:56:34;18.00;99.90
53152;DHT22;39234;53.158;6.322;2023-07-22T13:59:01;18.00;99.90
53152;DHT22;39234;53.158;6.322;2023-07-22T14:01:29;17.80;99.90
53152;DHT22;39234;53.158;6.322;2023-07-22T14:03:54;17.90;99.90
53152;DHT22;39234;53.158;6.322;2023-07-22T14:06:20;17.80;99.90
53152;DHT22;39234;53.158;6.322;2023-07-22T14:08:46;17.60;99.90
53152;DHT22;39234;53.158;6.322;2023-07-22T14:11:12;17.70;99.90
53152;DHT22;39234;53.158;6.322;2023-07-22T14:13:38;17.50;99.90
53152;DHT22;39234;53.158;6.322;2023-07-22T14:16:04;17.40;99.90
53152;DHT22;39234;53.158;6.322;2023-07-22T14:18:30;17.20;99.90
53152;DHT22;39234;53.158;6.322;2023-07-22T14:20:55;17.20;99.90
53152;DHT22;39234;53.158;6.322;2023-07-22T14:23:21;17.10;99.90
53152;DHT22;39234;53.158;6.322;2023-07-22T14:25:47;17.20;99.90
53152;DHT22;39234;53.158;6.322;2023-07-22T14:28:12;17.10;99.90
53152;DHT22;39234;53.158;6.322;2023-07-22T14:30:38;17.50;99.90
53152;DHT22;39234;53.158;6.322;2023-07-22T14:33:04;17.30;99.90
53152;DHT22;39234;53.158;6.322;2023-07-22T14:35:30;17.40;99.90
53152;DHT22;39234;53.158;6.322;2023-07-22T14:37:58;17.60;99.90
53152;DHT22;39234;53.158;6.322;2023-07-22T14:40:25;17.70;99.90
53152;DHT22;39234;53.158;6.322;2023-07-22T14:42:51;17.90;99.90
53152;DHT22;39234;53.158;6.322;2023-07-22T14:45:16;18.00;99.90
53152;DHT22;39234;53.158;6.322;2023-07-22T14:47:42;18.10;99.90
53152;DHT22;39234;53.158;6.322;2023-07-22T14:50:09;18.10;99.90
53152;DHT22;39234;53.158;6.322;2023-07-22T14:52:35;18.20;99.90
53152;DHT22;39234;53.158;6.322;2023-07-22T14:55:00;18.60;99.90
53152;DHT22;39234;53.158;6.322;2023-07-22T14:57:26;18.50;99.90
53152;DHT22;39234;53.158;6.322;2023-07-22T14:59:55;18.60;99.90
53152;DHT22;39234;53.158;6.322;2023-07-22T15:02:21;18.40;99.90
53152;DHT22;39234;53.158;6.322;2023-07-22T15:04:47;18.40;99.90
53152;DHT22;39234;53.158;6.322;2023-07-22T15:07:13;18.40;99.90
53152;DHT22;39234;53.158;6.322;2023-07-22T15:09:39;18.30;99.90
53152;DHT22;39234;53.158;6.322;2023-07-22T15:12:05;18.30;99.90
53152;DHT22;39234;53.158;6.322;2023-07-22T15:14:31;18.30;99.90
53152;DHT22;39234;53.158;6.322;2023-07-22T15:16:57;18.20;99.90
53152;DHT22;39234;53.158;6.322;2023-07-22T15:19:22;18.30;99.90
53152;DHT22;39234;53.158;6.322;2023-07-22T15:21:49;18.10;99.90
53152;DHT22;39234;53.158;6.322;2023-07-22T15:24:14;18.10;99.90
53152;DHT22;39234;53.158;6.322;2023-07-22T15:26:40;17.90;99.90
53152;DHT22;39234;53.158;6.322;2023-07-22T15:29:06;18.20;99.90
53152;DHT22;39234;53.158;6.322;2023-07-22T15:31:32;17.60;99.90
53152;DHT22;39234;53.158;6.322;2023-07-22T15:33:58;17.50;99.90
53152;DHT22;39234;53.158;6.322;2023-07-22T15:36:24;17.50;99.90
53152;DHT22;39234;53.158;6.322;2023-07-22T15:38:49;17.40;99.90
53152;DHT22;39234;53.158;6.322;2023-07-22T15:41:15;18.90;99.90
53152;DHT22;39234;53.158;6.322;2023-07-22T15:43:41;17.10;99.90